Terminal Aerodrome Forecast
Issued by NWS Melbourne, FL

Home | Current Version | Previous Version | Text Only | Print | Product List | Glossary On
Versions: 1 2 3 4 5 6 7 8 9 10 11 12 13 14 15 16 17
000
FTUS42 KMLB 300625 AAA
TAFMLB
TAF AMD
KMLB 300625Z 3006/3106 12011KT P6SM VCSH FEW015 SCT040 BKN060
      TEMPO 3006/3008 VRB15G25KT 3SM SHRA BKN018 BKN030
     FM301100 12009KT P6SM VCSH SCT025 BKN050 BKN250
     FM301800 15013KT P6SM VCTS SCT025CB BKN050 BKN150
     FM310000 16009KT P6SM VCSH FEW020 SCT050 BKN150=

USA.gov is the U.S. government's official web portal to all federal, state and local government web resources and services.